Pagrindinis puslapis
METAR-TAF:

METAR-TAF

Oro uostai :

Paganella, Italija

platuma: 46-09N, ilguma: 011-02E, Aukštis: 2125 m

Dabartinis oras

Ataskaita buvo paskelbta 41 minutes, ne 18:55 UTC
Ramus vėjas
Temperatūra 7°C
Drėgmė 93%
Slėgis 1025 hPa
Matomumas: 0300 m
rūkas

METAR: LIVP 191855Z 00000KT 0300 FG VV/// 07/06 Q1025 RMK MON INVIS VAL INVIS VIS MIN 0300

Laikas: 21:36 (19:36 UTC)


TAF: trūkstamas

Orai ataskaitas ir orų prognozės (METAR, TAF).

turimą stotys yra geltonos ir raudonos taškus žemėlapyje.

Perkelti pele per norėdami pamatyti stoties vardą.

Tada spustelėkite, norėdami matyti oro stebėjimo ir prognozės.

Norėdami pakeisti žemėlapį: spustelėkite ant žalios mygtukų su juodo kryžiaus žemyn,; žalią mygtuką su brūkšneliu, jei norite nutolinti; arba žalių rodyklių gretimoms žemėlapius.


METAR-TAF: